createdAt,value
2018-01-11T00:01:06.961Z,83.49
2018-01-11T00:03:35.361Z,83.29
2018-01-11T00:06:03.671Z,83.13
2018-01-11T00:08:31.999Z,83.04
2018-01-11T00:11:00.329Z,82.98
2018-01-11T00:13:29.389Z,82.97
2018-01-11T00:15:58.487Z,83.24
2018-01-11T00:18:27.827Z,83.27
2018-01-11T00:20:56.140Z,83.21
2018-01-11T00:23:24.488Z,83.21
2018-01-11T00:25:52.819Z,83.39
2018-01-11T00:28:21.129Z,83.36
2018-01-11T00:30:50.195Z,83.52
2018-01-11T00:33:18.529Z,83.87
2018-01-11T00:35:46.877Z,83.88
2018-01-11T00:38:15.190Z,83.90
2018-01-11T00:40:43.521Z,83.90
2018-01-11T00:43:12.563Z,84.11
2018-01-11T00:45:41.637Z,84.19
2018-01-11T00:48:09.959Z,84.35
2018-01-11T00:50:38.295Z,84.43
2018-01-11T00:53:06.660Z,84.37
2018-01-11T00:55:35.015Z,84.29
2018-01-11T00:58:03.325Z,84.18
2018-01-11T01:00:31.665Z,84.12
2018-01-11T01:03:00.004Z,84.10
2018-01-11T01:05:28.316Z,84.38
2018-01-11T01:07:57.401Z,84.46
2018-01-11T01:10:25.727Z,84.47
2018-01-11T01:12:54.874Z,84.81
2018-01-11T01:15:23.199Z,85.04
2018-01-11T01:17:51.575Z,85.21
2018-01-11T01:20:19.888Z,85.37
2018-01-11T01:22:48.207Z,85.42
2018-01-11T01:25:16.556Z,85.36
2018-01-11T01:27:44.885Z,85.35
2018-01-11T01:30:13.949Z,85.43
2018-01-11T01:32:42.285Z,85.54
2018-01-11T01:35:10.624Z,85.61
2018-01-11T01:37:38.943Z,85.46
2018-01-11T01:40:07.329Z,85.24
2018-01-11T01:42:35.662Z,85.12
2018-01-11T01:45:03.969Z,85.12
2018-01-11T01:47:32.510Z,85.12
2018-01-11T01:50:00.829Z,85.07
2018-01-11T01:52:29.140Z,84.88
2018-01-11T01:54:57.449Z,84.73
2018-01-11T01:57:25.792Z,84.55
2018-01-11T01:59:54.876Z,84.38
2018-01-11T02:02:23.962Z,84.45
2018-01-11T02:04:52.272Z,84.32
2018-01-11T02:07:21.345Z,84.15
2018-01-11T02:09:49.666Z,84.02
2018-01-11T02:12:18.002Z,83.96
2018-01-11T02:14:46.325Z,84.19
2018-01-11T02:17:14.694Z,84.19
2018-01-11T02:19:43.772Z,84.05
2018-01-11T02:22:12.099Z,83.93
2018-01-11T02:24:40.432Z,83.95
2018-01-11T02:27:08.760Z,84.27
2018-01-11T02:29:37.873Z,84.49
2018-01-11T02:32:06.212Z,84.54
2018-01-11T02:34:34.548Z,84.59
2018-01-11T02:37:02.858Z,84.60
2018-01-11T02:39:31.169Z,84.78
2018-01-11T02:42:00.232Z,84.64
2018-01-11T02:44:28.550Z,84.45
2018-01-11T02:46:57.616Z,84.23
2018-01-11T02:49:25.938Z,84.01
2018-01-11T02:51:55.024Z,83.94
2018-01-11T02:54:24.102Z,84.03
2018-01-11T02:56:52.422Z,83.88
2018-01-11T02:59:20.744Z,83.93
2018-01-11T03:01:49.054Z,83.94
2018-01-11T03:04:17.386Z,83.93
2018-01-11T03:06:45.731Z,83.77
2018-01-11T03:09:14.060Z,83.54
2018-01-11T03:11:42.448Z,83.33
2018-01-11T03:14:10.794Z,83.19
2018-01-11T03:16:39.899Z,83.22
2018-01-11T03:19:08.244Z,83.23
2018-01-11T03:21:36.564Z,83.25
2018-01-11T03:24:04.880Z,83.08
2018-01-11T03:26:33.214Z,83.05
2018-01-11T03:29:02.333Z,83.10
2018-01-11T03:31:30.641Z,83.02
2018-01-11T03:33:58.956Z,82.83
2018-01-11T03:36:27.284Z,82.84
2018-01-11T03:38:55.600Z,82.78
2018-01-11T03:41:23.908Z,82.65
2018-01-11T03:43:52.238Z,82.44
2018-01-11T03:46:20.604Z,82.59
2018-01-11T03:48:48.924Z,82.91
2018-01-11T03:51:17.280Z,83.15
2018-01-11T03:53:45.575Z,83.24
2018-01-11T03:56:13.975Z,82.83
2018-01-11T03:58:42.284Z,82.69
2018-01-11T04:01:10.678Z,82.72
2018-01-11T04:03:39.754Z,82.41
2018-01-11T04:06:08.072Z,82.53
2018-01-11T04:08:37.148Z,82.75
2018-01-11T04:11:05.478Z,82.57
2018-01-11T04:13:33.774Z,82.60
2018-01-11T04:16:02.087Z,82.40
2018-01-11T04:18:30.404Z,82.29
2018-01-11T04:20:58.710Z,82.26
2018-01-11T04:23:27.024Z,81.99
2018-01-11T04:25:55.330Z,81.87
2018-01-11T04:28:24.412Z,81.79
2018-01-11T04:30:52.716Z,81.70
2018-01-11T04:33:21.808Z,81.43
2018-01-11T04:35:50.918Z,81.22
2018-01-11T04:38:20.038Z,81.39
2018-01-11T04:40:48.378Z,81.42
2018-01-11T04:43:16.704Z,81.21
2018-01-11T04:45:45.027Z,81.37
2018-01-11T04:48:13.352Z,81.75
2018-01-11T04:50:41.692Z,81.89
2018-01-11T04:53:10.049Z,81.71
2018-01-11T04:55:38.384Z,81.46
2018-01-11T04:58:07.505Z,81.15
2018-01-11T05:00:41.464Z,81.08
2018-01-11T05:03:09.786Z,80.98
2018-01-11T05:05:38.864Z,80.80
2018-01-11T05:08:07.180Z,80.78
2018-01-11T05:10:35.566Z,80.72
2018-01-11T05:13:03.916Z,80.62
2018-01-11T05:15:32.237Z,80.56
2018-01-11T05:18:00.563Z,80.55
2018-01-11T05:20:28.934Z,80.52
2018-01-11T05:22:57.300Z,80.44
2018-01-11T05:25:25.631Z,80.36
2018-01-11T05:27:53.976Z,80.37
2018-01-11T05:30:22.302Z,80.32
2018-01-11T05:32:51.396Z,80.38
2018-01-11T05:35:20.484Z,80.74
2018-01-11T05:37:48.812Z,81.12
2018-01-11T05:40:17.126Z,81.35
2018-01-11T05:42:45.592Z,81.66
2018-01-11T05:45:13.940Z,81.83
2018-01-11T05:47:43.018Z,82.03
2018-01-11T05:50:12.122Z,81.94
2018-01-11T05:52:41.192Z,81.87
2018-01-11T05:55:09.531Z,81.73
2018-01-11T05:57:37.858Z,81.56
2018-01-11T06:00:06.944Z,81.32
2018-01-11T06:02:35.272Z,81.23
2018-01-11T06:05:04.348Z,81.24
2018-01-11T06:07:32.700Z,81.16
2018-01-11T06:10:01.038Z,81.01
2018-01-11T06:12:30.126Z,80.93
2018-01-11T06:14:58.444Z,80.83
2018-01-11T06:17:26.746Z,80.79
2018-01-11T06:19:55.070Z,80.82
2018-01-11T06:22:24.147Z,80.95
2018-01-11T06:24:53.178Z,81.10
2018-01-11T06:27:22.272Z,80.98
2018-01-11T06:29:51.365Z,80.83
2018-01-11T06:32:19.678Z,80.87
2018-01-11T06:34:48.036Z,80.88
2018-01-11T06:37:17.158Z,80.85
2018-01-11T06:39:45.494Z,80.85
2018-01-11T06:42:13.983Z,81.19
2018-01-11T06:44:42.404Z,81.38
2018-01-11T06:47:11.546Z,81.50
2018-01-11T06:49:39.852Z,81.57
2018-01-11T06:52:08.191Z,81.83
2018-01-11T06:54:36.513Z,81.86
2018-01-11T06:57:04.839Z,81.86
2018-01-11T06:59:33.178Z,81.97
2018-01-11T07:02:01.554Z,81.93
2018-01-11T07:04:30.002Z,81.76
2018-01-11T07:06:58.530Z,81.58
2018-01-11T07:09:26.860Z,81.56
2018-01-11T07:11:55.154Z,81.76
2018-01-11T07:14:23.472Z,81.84
2018-01-11T07:16:51.806Z,81.89
2018-01-11T07:19:20.104Z,82.08
2018-01-11T07:21:48.424Z,82.06
2018-01-11T07:24:16.790Z,82.07
2018-01-11T07:26:45.208Z,81.87
2018-01-11T07:29:13.506Z,81.73
2018-01-11T07:31:42.575Z,81.73
2018-01-11T07:34:10.908Z,81.71
2018-01-11T07:36:39.222Z,81.57
2018-01-11T07:39:07.540Z,81.40
2018-01-11T07:41:36.628Z,81.44
2018-01-11T07:44:05.707Z,81.28
2018-01-11T07:46:34.033Z,81.14
2018-01-11T07:49:02.359Z,80.95
2018-01-11T07:51:30.695Z,81.04
2018-01-11T07:53:59.823Z,81.06
2018-01-11T07:56:28.149Z,81.08
2018-01-11T07:58:56.472Z,80.99
2018-01-11T08:01:24.819Z,81.04
2018-01-11T08:03:53.899Z,81.07
2018-01-11T08:06:22.261Z,80.89
2018-01-11T08:08:50.583Z,80.82
2018-01-11T08:11:18.920Z,80.75
2018-01-11T08:13:47.225Z,80.70
2018-01-11T08:16:15.535Z,80.78
2018-01-11T08:18:44.771Z,80.78
2018-01-11T08:21:13.125Z,80.77
2018-01-11T08:23:42.187Z,80.67
2018-01-11T08:26:10.517Z,80.60
2018-01-11T08:28:38.843Z,80.66
2018-01-11T08:31:07.187Z,80.66
2018-01-11T08:33:35.497Z,80.72
2018-01-11T08:36:03.817Z,80.72
2018-01-11T08:38:32.151Z,80.86
2018-01-11T08:41:00.461Z,81.11
2018-01-11T08:43:28.777Z,81.09
2018-01-11T08:45:57.867Z,80.93
2018-01-11T08:48:26.185Z,80.84
2018-01-11T08:50:54.501Z,81.02
2018-01-11T08:53:22.815Z,81.37
2018-01-11T08:55:51.999Z,81.57
2018-01-11T08:58:20.325Z,81.79
2018-01-11T09:00:48.647Z,81.90
2018-01-11T09:03:16.973Z,81.86
2018-01-11T09:05:46.780Z,81.89
2018-01-11T09:08:15.294Z,81.74
2018-01-11T09:10:43.635Z,81.78
2018-01-11T09:13:11.969Z,81.78
2018-01-11T09:15:40.266Z,81.89
2018-01-11T09:18:08.603Z,82.02
2018-01-11T09:20:38.261Z,81.95
2018-01-11T09:23:07.029Z,81.89
2018-01-11T09:25:35.384Z,81.58
2018-01-11T09:28:04.451Z,81.08
2018-01-11T09:30:32.772Z,80.79
2018-01-11T09:33:01.844Z,80.41
2018-01-11T09:35:30.197Z,80.33
2018-01-11T09:37:58.509Z,80.17
2018-01-11T09:40:26.831Z,80.41
2018-01-11T09:42:55.171Z,80.75
2018-01-11T09:45:23.529Z,81.01
2018-01-11T09:47:51.842Z,81.17
2018-01-11T09:50:20.156Z,81.21
2018-01-11T09:52:48.477Z,81.11
2018-01-11T09:55:16.799Z,81.13
2018-01-11T09:57:45.870Z,81.18
2018-01-11T10:00:14.187Z,80.75
2018-01-11T10:02:43.282Z,80.65
2018-01-11T10:05:13.087Z,80.81
2018-01-11T10:07:41.412Z,80.87
2018-01-11T10:10:09.744Z,80.61
2018-01-11T10:12:38.072Z,80.13
2018-01-11T10:15:06.431Z,80.12
2018-01-11T10:17:34.760Z,80.18
2018-01-11T10:20:03.081Z,80.32
2018-01-11T10:22:31.409Z,80.10
2018-01-11T10:24:59.734Z,79.65
2018-01-11T10:27:28.051Z,79.67
2018-01-11T10:29:56.373Z,79.47
2018-01-11T10:32:24.722Z,79.33
2018-01-11T10:34:53.081Z,79.23
2018-01-11T10:37:22.233Z,79.31
2018-01-11T10:39:50.559Z,79.14
2018-01-11T10:42:19.659Z,79.09
2018-01-11T10:44:48.777Z,78.92
2018-01-11T10:47:17.901Z,78.89
2018-01-11T10:49:46.196Z,78.72
2018-01-11T10:52:14.565Z,78.58
2018-01-11T10:54:42.892Z,78.44
2018-01-11T10:57:11.255Z,78.35
2018-01-11T10:59:39.576Z,78.46
2018-01-11T11:02:14.289Z,78.38
2018-01-11T11:04:43.195Z,78.36
2018-01-11T11:07:13.082Z,78.48
2018-01-11T11:09:41.512Z,78.54
2018-01-11T11:12:09.863Z,78.62
2018-01-11T11:14:38.197Z,78.52
2018-01-11T11:17:06.511Z,78.63
2018-01-11T11:19:34.845Z,78.61
2018-01-11T11:22:03.178Z,78.53
2018-01-11T11:24:31.630Z,78.65
2018-01-11T11:27:00.788Z,78.52
2018-01-11T11:29:30.048Z,78.39
2018-01-11T11:31:59.236Z,78.26
2018-01-11T11:34:27.569Z,78.43
2018-01-11T11:36:55.893Z,78.51
2018-01-11T11:39:24.206Z,78.43
2018-01-11T11:41:52.554Z,78.36
2018-01-11T11:46:54.834Z,78.07
2018-01-11T11:49:23.146Z,77.92
2018-01-11T11:51:51.467Z,77.95
2018-01-11T11:56:54.310Z,77.89
2018-01-11T11:59:22.646Z,77.85
2018-01-11T12:01:51.567Z,77.80
2018-01-11T12:04:20.647Z,77.96
2018-01-11T12:06:48.969Z,77.86
2018-01-11T12:09:17.304Z,78.12
2018-01-11T12:11:45.632Z,78.08
2018-01-11T12:14:13.945Z,78.10
2018-01-11T12:16:42.247Z,78.05
2018-01-11T12:19:10.592Z,78.04
2018-01-11T12:21:38.919Z,77.90
2018-01-11T12:24:07.237Z,77.78
2018-01-11T12:26:35.545Z,77.70
2018-01-11T12:29:03.856Z,77.73
2018-01-11T12:31:32.190Z,77.66
2018-01-11T12:34:00.522Z,77.68
2018-01-11T12:36:28.850Z,77.99
2018-01-11T12:38:57.238Z,78.17
2018-01-11T12:41:25.564Z,78.01
2018-01-11T12:43:53.901Z,77.95
2018-01-11T12:46:22.228Z,78.09
2018-01-11T12:48:50.557Z,78.06
2018-01-11T12:51:18.872Z,78.19
2018-01-11T12:53:47.967Z,77.88
2018-01-11T12:56:16.282Z,77.82
2018-01-11T12:58:44.661Z,78.01
2018-01-11T13:01:13.056Z,78.19
2018-01-11T13:03:41.394Z,78.23
2018-01-11T13:06:09.701Z,78.05
2018-01-11T13:08:38.019Z,78.04
2018-01-11T13:11:07.092Z,78.00
2018-01-11T13:13:35.420Z,77.91
2018-01-11T13:16:03.752Z,77.88
2018-01-11T13:18:32.086Z,77.83
2018-01-11T13:21:00.398Z,77.99
2018-01-11T13:23:28.712Z,78.16
2018-01-11T13:25:57.046Z,78.14
2018-01-11T13:28:25.384Z,78.11
2018-01-11T13:30:54.496Z,78.18
2018-01-11T13:33:22.822Z,78.24
2018-01-11T13:35:51.152Z,78.32
2018-01-11T13:38:20.264Z,78.35
2018-01-11T13:40:48.570Z,78.46
2018-01-11T13:43:16.946Z,78.66
2018-01-11T13:45:45.322Z,78.73
2018-01-11T13:48:13.628Z,78.71
2018-01-11T13:50:41.956Z,78.66
2018-01-11T13:53:10.373Z,78.61
2018-01-11T13:55:38.649Z,78.76
2018-01-11T13:58:06.985Z,78.84
2018-01-11T14:00:35.321Z,78.83
2018-01-11T14:03:04.440Z,78.90
2018-01-11T14:05:32.746Z,79.01
2018-01-11T14:08:01.086Z,79.03
2018-01-11T14:10:29.424Z,78.96
2018-01-11T14:12:57.762Z,78.93
2018-01-11T14:15:26.085Z,78.96
2018-01-11T14:17:54.423Z,79.09
2018-01-11T14:20:22.777Z,79.04
2018-01-11T14:22:51.160Z,78.92
2018-01-11T14:25:19.491Z,78.86
2018-01-11T14:27:47.826Z,78.82
2018-01-11T14:30:16.171Z,78.65
2018-01-11T14:32:44.477Z,78.74
2018-01-11T14:35:13.570Z,78.62
2018-01-11T14:37:42.690Z,78.58
2018-01-11T14:40:11.026Z,78.49
2018-01-11T14:42:39.352Z,78.50
2018-01-11T14:45:07.710Z,78.79
2018-01-11T14:47:36.061Z,78.96
2018-01-11T14:50:04.413Z,78.61
2018-01-11T14:52:32.712Z,78.54
2018-01-11T14:55:01.029Z,78.50
2018-01-11T14:57:29.368Z,78.53
2018-01-11T14:59:57.693Z,78.48
2018-01-11T15:02:26.066Z,78.46
2018-01-11T15:04:54.418Z,78.43
2018-01-11T15:07:22.756Z,78.54
2018-01-11T15:09:51.105Z,78.43
2018-01-11T15:12:19.416Z,78.58
2018-01-11T15:14:47.752Z,78.55
2018-01-11T15:17:16.162Z,78.50
2018-01-11T15:19:44.504Z,78.54
2018-01-11T15:22:12.822Z,78.49
2018-01-11T15:24:41.138Z,78.48
2018-01-11T15:27:10.225Z,78.47
2018-01-11T15:29:38.666Z,78.67
2018-01-11T15:32:06.990Z,78.67
2018-01-11T15:34:35.324Z,78.59
2018-01-11T15:37:03.641Z,78.70
2018-01-11T15:39:32.010Z,78.77
2018-01-11T15:42:00.326Z,78.85
2018-01-11T15:44:28.654Z,78.78
2018-01-11T15:46:56.986Z,78.81
2018-01-11T15:49:25.304Z,78.93
2018-01-11T15:51:53.623Z,78.99
2018-01-11T15:54:21.941Z,79.10
2018-01-11T15:56:51.018Z,79.08
2018-01-11T15:59:19.332Z,79.20
2018-01-11T16:01:47.752Z,79.21
2018-01-11T16:04:16.096Z,79.35
2018-01-11T16:06:45.255Z,79.52
2018-01-11T16:09:13.570Z,79.65
2018-01-11T16:11:42.669Z,79.76
2018-01-11T16:14:11.758Z,79.97
2018-01-11T16:16:40.151Z,80.08
2018-01-11T16:19:08.507Z,80.14
2018-01-11T16:21:36.952Z,80.37
2018-01-11T16:24:05.297Z,80.51
2018-01-11T16:26:33.610Z,80.80
2018-01-11T16:29:01.930Z,80.75
2018-01-11T16:31:30.264Z,80.58
2018-01-11T16:33:58.582Z,80.50
2018-01-11T16:36:26.928Z,80.54
2018-01-11T16:38:55.243Z,80.70
2018-01-11T16:41:23.576Z,80.67
2018-01-11T16:43:52.679Z,80.57
2018-01-11T16:46:22.512Z,80.72
2018-01-11T16:48:50.851Z,80.67
2018-01-11T16:51:19.185Z,80.80
2018-01-11T16:53:47.491Z,80.94
2018-01-11T16:56:15.800Z,80.93
2018-01-11T16:58:44.144Z,80.84
2018-01-11T17:01:12.445Z,80.74
2018-01-11T17:03:40.766Z,80.72
2018-01-11T17:06:09.880Z,80.73
2018-01-11T17:08:38.216Z,80.73
2018-01-11T17:11:06.650Z,80.75
2018-01-11T17:13:34.974Z,80.90
2018-01-11T17:16:03.306Z,80.81
2018-01-11T17:18:31.624Z,80.92
2018-01-11T17:20:59.938Z,80.96
2018-01-11T17:23:28.250Z,80.92
2018-01-11T17:25:57.335Z,80.99
2018-01-11T17:28:26.426Z,80.92
2018-01-11T17:30:54.754Z,80.95
2018-01-11T17:33:23.062Z,80.87
2018-01-11T17:35:51.397Z,80.91
2018-01-11T17:38:19.749Z,80.89
2018-01-11T17:40:48.093Z,80.86
2018-01-11T17:43:16.396Z,80.98
2018-01-11T17:45:44.709Z,81.11
2018-01-11T17:48:13.772Z,81.17
2018-01-11T17:50:42.141Z,81.25
2018-01-11T17:53:10.579Z,81.33
2018-01-11T17:55:39.713Z,81.35
2018-01-11T17:58:08.077Z,81.36
2018-01-11T18:00:36.385Z,81.38
2018-01-11T18:03:04.703Z,81.53
2018-01-11T18:05:33.035Z,81.61
2018-01-11T18:08:01.386Z,81.44
2018-01-11T18:10:30.525Z,81.20
2018-01-11T18:12:58.865Z,81.17
2018-01-11T18:15:27.966Z,81.16
2018-01-11T18:17:57.135Z,81.01
2018-01-11T18:20:25.482Z,81.02
2018-01-11T18:22:54.548Z,81.03
2018-01-11T18:25:22.869Z,81.00
2018-01-11T18:27:51.212Z,80.97
2018-01-11T18:30:20.294Z,80.88
2018-01-11T18:32:48.607Z,81.05
2018-01-11T18:35:16.942Z,81.13
2018-01-11T18:37:45.249Z,81.16
2018-01-11T18:40:13.562Z,81.28
2018-01-11T18:42:41.906Z,81.15
2018-01-11T18:45:11.005Z,81.10
2018-01-11T18:47:39.315Z,81.08
2018-01-11T18:50:08.399Z,81.18
2018-01-11T18:52:37.476Z,81.26
2018-01-11T18:55:05.780Z,81.24
2018-01-11T18:57:34.857Z,81.20
2018-01-11T19:00:03.192Z,81.30
2018-01-11T19:02:31.531Z,81.25
2018-01-11T19:04:59.857Z,81.27
2018-01-11T19:07:28.213Z,81.28
2018-01-11T19:09:57.325Z,81.23
2018-01-11T19:12:25.649Z,81.25
2018-01-11T19:14:53.965Z,81.24
2018-01-11T19:17:23.056Z,81.14
2018-01-11T19:19:51.493Z,81.15
2018-01-11T19:22:19.796Z,81.05
2018-01-11T19:24:48.110Z,81.04
2018-01-11T19:27:16.419Z,80.93
2018-01-11T19:29:44.752Z,80.80
2018-01-11T19:32:13.053Z,80.70
2018-01-11T19:34:41.384Z,80.66
2018-01-11T19:37:09.723Z,80.67
2018-01-11T19:39:38.055Z,80.65
2018-01-11T19:42:06.386Z,80.71
2018-01-11T19:44:34.699Z,80.66
2018-01-11T19:47:03.010Z,80.60
2018-01-11T19:49:31.312Z,80.50
2018-01-11T19:51:59.677Z,80.57
2018-01-11T19:54:28.813Z,80.51
2018-01-11T19:56:57.130Z,80.52
2018-01-11T19:59:25.455Z,80.43
2018-01-11T20:01:53.800Z,80.52
2018-01-11T20:04:22.144Z,80.51
2018-01-11T20:06:50.515Z,80.53
2018-01-11T20:09:18.917Z,80.47
2018-01-11T20:11:47.373Z,80.37
2018-01-11T20:14:15.687Z,80.37
2018-01-11T20:16:44.788Z,80.41
2018-01-11T20:19:13.877Z,80.56
2018-01-11T20:21:42.960Z,80.66
2018-01-11T20:24:11.264Z,80.67
2018-01-11T20:26:40.361Z,80.70
2018-01-11T20:29:09.430Z,80.76
2018-01-11T20:31:37.758Z,80.94
2018-01-11T20:34:06.861Z,81.07
2018-01-11T20:36:35.163Z,81.06
2018-01-11T20:39:03.629Z,80.93
2018-01-11T20:41:31.930Z,80.92
2018-01-11T20:44:00.241Z,80.86
2018-01-11T20:46:28.565Z,80.94
2018-01-11T20:48:57.631Z,80.94
2018-01-11T20:51:25.921Z,80.87
2018-01-11T20:53:54.244Z,80.72
2018-01-11T20:56:22.543Z,80.68
2018-01-11T20:58:50.845Z,80.67
2018-01-11T21:01:19.155Z,80.73
2018-01-11T21:03:48.219Z,80.66
2018-01-11T21:06:17.297Z,80.68
2018-01-11T21:08:45.618Z,80.65
2018-01-11T21:11:13.978Z,80.64
2018-01-11T21:13:42.299Z,80.53
2018-01-11T21:16:11.424Z,80.44
2018-01-11T21:18:39.711Z,80.36
2018-01-11T21:21:08.018Z,80.40
2018-01-11T21:23:36.334Z,80.40
2018-01-11T21:26:04.639Z,80.41
2018-01-11T21:28:33.732Z,80.37
2018-01-11T21:31:02.786Z,80.42
2018-01-11T21:33:31.084Z,80.31
2018-01-11T21:35:59.393Z,80.16
2018-01-11T21:38:28.469Z,80.17
2018-01-11T21:40:56.760Z,80.07
2018-01-11T21:43:25.073Z,80.09
2018-01-11T21:45:53.367Z,79.98
2018-01-11T21:48:21.693Z,79.76
2018-01-11T21:50:50.001Z,79.85
2018-01-11T21:53:19.079Z,79.76
2018-01-11T21:55:47.377Z,79.76
2018-01-11T21:58:16.429Z,79.74
2018-01-11T22:00:44.745Z,79.64
2018-01-11T22:03:13.057Z,79.57
2018-01-11T22:05:41.371Z,79.63
2018-01-11T22:08:09.677Z,79.73
2018-01-11T22:10:37.993Z,79.70
2018-01-11T22:13:07.045Z,79.90
2018-01-11T22:15:35.437Z,79.89
2018-01-11T22:18:03.737Z,79.93
2018-01-11T22:20:32.822Z,79.91
2018-01-11T22:23:01.257Z,79.86
2018-01-11T22:25:30.427Z,79.87
2018-01-11T22:27:58.753Z,79.92
2018-01-11T22:30:27.127Z,79.84
2018-01-11T22:32:55.437Z,79.71
2018-01-11T22:35:23.740Z,79.73
2018-01-11T22:37:52.056Z,79.66
2018-01-11T22:40:20.403Z,79.63
2018-01-11T22:42:49.474Z,79.54
2018-01-11T22:45:17.780Z,79.53
2018-01-11T22:47:46.116Z,79.38
2018-01-11T22:50:14.431Z,79.40
2018-01-11T22:52:42.742Z,79.42
2018-01-11T22:55:11.041Z,79.37
2018-01-11T22:57:39.398Z,79.33
2018-01-11T23:00:09.378Z,79.31
2018-01-11T23:02:37.671Z,79.18
2018-01-11T23:05:05.976Z,79.20
2018-01-11T23:07:35.059Z,79.31
2018-01-11T23:10:03.452Z,79.50
2018-01-11T23:12:32.533Z,79.61
2018-01-11T23:15:00.835Z,79.63
2018-01-11T23:17:29.136Z,79.69
2018-01-11T23:19:58.216Z,79.77
2018-01-11T23:22:26.532Z,79.88
2018-01-11T23:24:54.920Z,80.00
2018-01-11T23:27:23.247Z,80.00
2018-01-11T23:29:51.563Z,80.02
2018-01-11T23:32:19.909Z,80.05
2018-01-11T23:34:48.208Z,79.95
2018-01-11T23:37:17.188Z,79.87
2018-01-11T23:39:45.487Z,79.82
2018-01-11T23:42:13.798Z,79.73
2018-01-11T23:44:42.864Z,79.55
2018-01-11T23:47:11.942Z,79.59
2018-01-11T23:49:40.271Z,79.55
2018-01-11T23:52:09.376Z,79.54
2018-01-11T23:54:38.442Z,79.45
2018-01-11T23:57:08.252Z,79.51
2018-01-11T23:59:36.577Z,79.52
